Time;durP1;ratioP1;P1;durP2;ratioP2;P2;SDS_P1;SDS_P2;PMS_P1;PMS_P2;Temp;Humidity;BMP_temperature;BMP_pressure;BME280_temperature;BME280_humidity;BME280_pressure;Samples;Min_cycle;Max_cycle;Signal;HPM_P1;HPM_P2
2023/03/05 11:04:47;;;;;;;7.68;2.72;;;18.30;77.10;;;;;;5111258;27;20400;-41
2023/03/05 11:07:13;;;;;;;6.68;2.95;;;18.30;77.90;;;;;;5112618;28;20419;-40
2023/03/05 11:09:40;;;;;;;7.88;3.15;;;18.40;78.10;;;;;;5112028;28;20040;-40
2023/03/05 11:12:07;;;;;;;10.80;3.70;;;18.60;77.80;;;;;;5110731;28;20043;-40
2023/03/05 11:14:34;;;;;;;7.75;3.20;;;18.70;77.50;;;;;;5111598;28;20048;-40
2023/03/05 11:17:01;;;;;;;7.95;3.13;;;18.90;77.20;;;;;;5112113;28;20039;-38
2023/03/05 11:19:31;;;;;;;9.02;3.53;;;19.00;77.00;;;;;;5110948;28;20076;-37
2023/03/05 11:21:58;;;;;;;10.13;3.57;;;19.20;76.70;;;;;;5112366;28;20038;-40
2023/03/05 11:24:25;;;;;;;7.40;3.28;;;19.30;76.40;;;;;;5096133;28;20299;-41
2023/03/05 11:26:52;;;;;;;8.30;3.50;;;19.40;76.10;;;;;;5091230;28;20040;-39
2023/03/05 11:29:18;;;;;;;8.80;3.40;;;19.50;75.80;;;;;;5090955;28;20032;-40
2023/03/05 11:31:45;;;;;;;12.02;3.80;;;19.60;75.50;;;;;;5090714;28;20044;-39
2023/03/05 11:34:11;;;;;;;8.57;3.22;;;19.70;75.30;;;;;;5072963;28;20047;-39
2023/03/05 11:36:38;;;;;;;12.63;3.80;;;19.80;75.10;;;;;;5091510;28;20048;-40
2023/03/05 11:39:05;;;;;;;9.52;3.70;;;19.80;74.80;;;;;;5090774;28;20045;-40
2023/03/05 11:41:31;;;;;;;7.82;3.40;;;19.90;74.60;;;;;;5090774;28;20451;-39
2023/03/05 11:43:58;;;;;;;9.68;3.70;;;20.00;74.50;;;;;;5091109;28;20055;-41
2023/03/05 11:46:25;;;;;;;9.18;3.50;;;20.00;74.20;;;;;;5085107;28;20048;-37
2023/03/05 11:48:53;;;;;;;8.60;3.25;;;20.00;74.00;;;;;;5090264;28;20066;-40
2023/03/05 11:51:19;;;;;;;9.40;3.40;;;20.10;73.90;;;;;;5090336;28;20040;-39
2023/03/05 11:53:46;;;;;;;9.45;3.42;;;20.10;73.90;;;;;;5103135;28;20051;-41
2023/03/05 11:56:13;;;;;;;28.52;16.15;;;20.20;73.80;;;;;;5108560;28;20086;-39
2023/03/05 11:58:39;;;;;;;30.40;19.33;;;20.30;74.30;;;;;;5108232;28;20044;-38
2023/03/05 12:01:06;;;;;;;25.30;15.55;;;20.40;75.60;;;;;;5108900;28;20734;-37
2023/03/05 12:03:33;;;;;;;28.40;16.10;;;20.50;76.00;;;;;;5097808;28;20048;-40
2023/03/05 12:06:00;;;;;;;24.75;13.27;;;20.60;76.70;;;;;;5087447;28;20052;-40
2023/03/05 12:08:27;;;;;;;28.83;14.05;;;20.70;76.60;;;;;;5070519;28;20048;-39
2023/03/05 12:10:53;;;;;;;31.48;16.58;;;20.80;77.40;;;;;;5088142;28;20394;-39
2023/03/05 12:13:20;;;;;;;31.55;15.30;;;20.90;79.30;;;;;;5087823;28;20048;-39
2023/03/05 12:15:47;;;;;;;24.25;12.45;;;20.90;80.00;;;;;;5076525;28;20074;-39
2023/03/05 12:18:14;;;;;;;30.38;12.20;;;21.00;78.70;;;;;;5073697;28;20040;-39
2023/03/05 12:20:41;;;;;;;22.75;11.07;;;21.10;78.90;;;;;;5076916;28;20032;-39
2023/03/05 12:23:07;;;;;;;20.15;9.63;;;21.10;78.20;;;;;;5077441;28;20459;-39
2023/03/05 12:25:34;;;;;;;15.88;8.38;;;21.10;77.00;;;;;;5075274;28;20040;-40
2023/03/05 12:28:01;;;;;;;14.65;7.45;;;21.10;76.80;;;;;;5076965;28;20047;-40
2023/03/05 12:30:28;;;;;;;14.70;6.57;;;21.10;75.70;;;;;;5076897;28;20474;-40
2023/03/05 12:32:55;;;;;;;11.25;5.72;;;21.10;75.30;;;;;;5075520;28;20052;-38
2023/03/05 12:35:21;;;;;;;14.68;6.47;;;21.00;74.50;;;;;;5059244;28;20029;-40
2023/03/05 12:37:48;;;;;;;13.95;5.50;;;21.00;74.60;;;;;;5075584;28;20110;-38
2023/03/05 12:40:15;;;;;;;14.38;6.20;;;21.00;74.80;;;;;;5076543;28;20081;-39
2023/03/05 12:42:42;;;;;;;13.77;5.63;;;21.00;74.50;;;;;;5046975;28;20033;-39
2023/03/05 12:45:09;;;;;;;10.98;5.30;;;20.90;74.30;;;;;;5055449;28;20048;-40
2023/03/05 12:47:35;;;;;;;11.70;5.32;;;20.90;74.00;;;;;;5056404;28;20073;-40
2023/03/05 12:50:04;;;;;;;11.95;5.20;;;20.90;73.90;;;;;;5056653;28;20055;-39
2023/03/05 12:52:31;;;;;;;10.95;4.95;;;20.80;73.40;;;;;;5055428;28;20048;-39
2023/03/05 12:54:58;;;;;;;9.75;5.00;;;20.80;73.50;;;;;;5055694;28;20044;-40
2023/03/05 12:57:28;;;;;;;12.18;5.60;;;20.80;73.40;;;;;;5056518;28;20044;-40
2023/03/05 12:59:55;;;;;;;9.98;4.72;;;20.80;73.30;;;;;;5055595;28;20045;-40
2023/03/05 13:02:21;;;;;;;10.35;4.70;;;20.70;73.10;;;;;;5055606;28;20051;-39
2023/03/05 13:04:51;;;;;;;9.63;4.18;;;20.70;73.10;;;;;;5054235;28;20052;-38
2023/03/05 13:07:18;;;;;;;8.82;4.50;;;20.70;72.90;;;;;;5072803;28;20123;-40
2023/03/05 13:09:45;;;;;;;9.23;4.40;;;20.70;73.10;;;;;;5075071;28;20079;-40
2023/03/05 13:12:12;;;;;;;10.32;4.68;;;20.70;72.90;;;;;;5075512;28;20044;-39
2023/03/05 13:14:38;;;;;;;10.13;4.70;;;20.70;73.00;;;;;;5075638;28;20123;-40
2023/03/05 13:17:05;;;;;;;11.25;4.68;;;20.70;72.70;;;;;;5075657;28;20070;-40
2023/03/05 13:19:34;;;;;;;9.40;4.75;;;20.70;72.70;;;;;;5074888;28;20037;-41
2023/03/05 13:22:00;;;;;;;9.60;4.68;;;20.70;72.60;;;;;;5076330;28;20098;-40
2023/03/05 13:24:28;;;;;;;10.63;4.63;;;20.70;72.70;;;;;;5074453;28;20477;-39
2023/03/05 13:26:54;;;;;;;9.25;4.53;;;20.70;72.60;;;;;;5063492;28;20044;-37
2023/03/05 13:29:21;;;;;;;11.45;5.03;;;20.70;72.70;;;;;;5058736;28;20037;-37
2023/03/05 13:31:48;;;;;;;10.95;5.07;;;20.60;72.60;;;;;;5054654;28;20069;-37
2023/03/05 13:34:15;;;;;;;9.45;4.88;;;20.70;72.60;;;;;;5055447;28;20056;-40
2023/03/05 13:36:41;;;;;;;10.50;4.90;;;20.70;72.60;;;;;;5055751;28;20037;-36
2023/03/05 13:39:08;;;;;;;10.77;5.13;;;20.70;72.50;;;;;;5054363;28;20033;-40
2023/03/05 13:41:35;;;;;;;10.20;4.88;;;20.70;72.60;;;;;;5058816;28;20101;-38
2023/03/05 13:44:01;;;;;;;8.27;4.68;;;20.60;72.40;;;;;;5075468;28;20040;-40
2023/03/05 13:46:28;;;;;;;8.73;4.65;;;20.70;72.40;;;;;;5074200;28;20090;-38
2023/03/05 13:48:55;;;;;;;8.55;4.68;;;20.60;72.30;;;;;;5070785;28;20513;-36
2023/03/05 13:51:21;;;;;;;9.52;4.88;;;20.60;72.40;;;;;;5053949;28;20048;-37
2023/03/05 13:53:48;;;;;;;9.57;4.57;;;20.60;72.30;;;;;;5054715;28;20049;-38
2023/03/05 13:56:15;;;;;;;8.20;4.50;;;20.60;72.30;;;;;;5055130;28;20040;-37
2023/03/05 13:58:48;;;;;;;10.60;4.50;;;20.60;72.10;;;;;;5054613;28;20037;-38
2023/03/05 14:01:15;;;;;;;7.97;4.32;;;20.60;72.20;;;;;;5054574;28;20096;-37
2023/03/05 14:03:41;;;;;;;9.95;4.43;;;20.60;72.30;;;;;;5065584;28;20079;-38
2023/03/05 14:06:08;;;;;;;10.15;4.63;;;20.60;72.10;;;;;;5074362;28;20402;-38
2023/03/05 14:08:35;;;;;;;8.57;4.43;;;20.60;72.00;;;;;;5075011;28;20421;-38
2023/03/05 14:11:01;;;;;;;8.20;4.57;;;20.60;71.90;;;;;;5074655;28;20044;-38
2023/03/05 14:13:30;;;;;;;8.68;4.40;;;20.50;71.80;;;;;;5075008;28;20036;-37
2023/03/05 14:15:57;;;;;;;8.65;4.25;;;20.60;71.90;;;;;;5074590;28;20049;-37
2023/03/05 14:18:24;;;;;;;8.55;4.20;;;20.50;71.80;;;;;;5073151;28;20417;-39
2023/03/05 14:20:50;;;;;;;7.85;4.07;;;20.50;71.70;;;;;;5073193;28;20064;-37
2023/03/05 14:23:17;;;;;;;7.65;4.35;;;20.50;71.60;;;;;;5074031;28;20052;-37
2023/03/05 14:25:52;;;;;;;7.60;3.85;;;20.50;71.60;;;;;;5074033;28;20036;-37
2023/03/05 14:28:19;;;;;;;9.52;3.97;;;20.50;71.70;;;;;;5074494;28;20044;-39
2023/03/05 14:30:46;;;;;;;8.10;3.90;;;20.50;71.70;;;;;;5074645;28;20041;-38
2023/03/05 14:33:12;;;;;;;7.40;3.92;;;20.50;71.60;;;;;;5073369;28;20041;-38
2023/03/05 14:35:39;;;;;;;7.07;3.80;;;20.50;71.40;;;;;;5074510;28;20041;-40
